sensor_id;sensor_type;location;lat;lon;timestamp;P1;durP1;ratioP1;P2;durP2;ratioP2
52180;SDS011;38158;53.338;6.514;2023-04-25T00:02:20;13.45;;;2.30;;
52180;SDS011;38158;53.338;6.514;2023-04-25T00:04:47;15.03;;;2.33;;
52180;SDS011;38158;53.338;6.514;2023-04-25T00:07:14;15.75;;;2.60;;
52180;SDS011;38158;53.338;6.514;2023-04-25T00:09:40;17.75;;;2.17;;
52180;SDS011;38158;53.338;6.514;2023-04-25T00:12:06;11.88;;;2.20;;
52180;SDS011;38158;53.338;6.514;2023-04-25T00:14:32;10.75;;;2.20;;
52180;SDS011;38158;53.338;6.514;2023-04-25T00:17:01;5.88;;;1.35;;
52180;SDS011;38158;53.338;6.514;2023-04-25T00:19:28;11.55;;;1.35;;
52180;SDS011;38158;53.338;6.514;2023-04-25T00:21:54;7.90;;;2.08;;
52180;SDS011;38158;53.338;6.514;2023-04-25T00:24:20;9.70;;;2.10;;
52180;SDS011;38158;53.338;6.514;2023-04-25T00:26:46;13.70;;;2.10;;
52180;SDS011;38158;53.338;6.514;2023-04-25T00:29:12;12.85;;;1.83;;
52180;SDS011;38158;53.338;6.514;2023-04-25T00:31:38;7.75;;;1.45;;
52180;SDS011;38158;53.338;6.514;2023-04-25T00:34:03;9.25;;;1.75;;
52180;SDS011;38158;53.338;6.514;2023-04-25T00:36:29;10.32;;;1.80;;
52180;SDS011;38158;53.338;6.514;2023-04-25T00:38:55;11.95;;;1.95;;
52180;SDS011;38158;53.338;6.514;2023-04-25T00:41:21;5.95;;;1.20;;
52180;SDS011;38158;53.338;6.514;2023-04-25T00:43:47;8.68;;;1.30;;
52180;SDS011;38158;53.338;6.514;2023-04-25T00:46:13;16.00;;;2.22;;
52180;SDS011;38158;53.338;6.514;2023-04-25T00:48:39;8.85;;;1.30;;
52180;SDS011;38158;53.338;6.514;2023-04-25T00:51:05;12.95;;;2.53;;
52180;SDS011;38158;53.338;6.514;2023-04-25T00:53:31;9.95;;;1.63;;
52180;SDS011;38158;53.338;6.514;2023-04-25T00:55:57;11.70;;;1.93;;
52180;SDS011;38158;53.338;6.514;2023-04-25T00:58:24;8.57;;;1.52;;
52180;SDS011;38158;53.338;6.514;2023-04-25T01:00:50;9.15;;;1.42;;
52180;SDS011;38158;53.338;6.514;2023-04-25T01:03:17;6.97;;;1.40;;
52180;SDS011;38158;53.338;6.514;2023-04-25T01:05:45;11.45;;;2.15;;
52180;SDS011;38158;53.338;6.514;2023-04-25T01:08:12;10.80;;;1.70;;
52180;SDS011;38158;53.338;6.514;2023-04-25T01:10:38;7.57;;;1.97;;
52180;SDS011;38158;53.338;6.514;2023-04-25T01:13:03;9.32;;;1.92;;
52180;SDS011;38158;53.338;6.514;2023-04-25T01:15:29;11.55;;;1.40;;
52180;SDS011;38158;53.338;6.514;2023-04-25T01:17:55;5.50;;;1.25;;
52180;SDS011;38158;53.338;6.514;2023-04-25T01:20:23;6.90;;;1.67;;
52180;SDS011;38158;53.338;6.514;2023-04-25T01:22:52;7.45;;;1.10;;
52180;SDS011;38158;53.338;6.514;2023-04-25T01:25:19;7.85;;;1.25;;
52180;SDS011;38158;53.338;6.514;2023-04-25T01:27:45;10.60;;;2.25;;
52180;SDS011;38158;53.338;6.514;2023-04-25T01:30:11;10.75;;;2.03;;
52180;SDS011;38158;53.338;6.514;2023-04-25T01:32:38;7.97;;;1.67;;
52180;SDS011;38158;53.338;6.514;2023-04-25T01:35:05;14.00;;;2.13;;
52180;SDS011;38158;53.338;6.514;2023-04-25T01:37:35;9.82;;;2.30;;
52180;SDS011;38158;53.338;6.514;2023-04-25T01:40:08;10.23;;;1.58;;
52180;SDS011;38158;53.338;6.514;2023-04-25T01:42:39;11.88;;;1.83;;
52180;SDS011;38158;53.338;6.514;2023-04-25T01:45:08;15.77;;;1.98;;
52180;SDS011;38158;53.338;6.514;2023-04-25T01:47:35;13.77;;;2.08;;
52180;SDS011;38158;53.338;6.514;2023-04-25T01:50:02;8.48;;;1.80;;
52180;SDS011;38158;53.338;6.514;2023-04-25T01:52:29;11.50;;;2.00;;
52180;SDS011;38158;53.338;6.514;2023-04-25T01:54:55;10.27;;;1.65;;
52180;SDS011;38158;53.338;6.514;2023-04-25T01:59:48;9.80;;;1.33;;
52180;SDS011;38158;53.338;6.514;2023-04-25T02:02:14;7.20;;;1.20;;
52180;SDS011;38158;53.338;6.514;2023-04-25T02:04:40;12.50;;;2.13;;
52180;SDS011;38158;53.338;6.514;2023-04-25T02:07:06;11.43;;;1.88;;
52180;SDS011;38158;53.338;6.514;2023-04-25T02:09:32;8.60;;;1.50;;
52180;SDS011;38158;53.338;6.514;2023-04-25T02:11:57;8.77;;;1.00;;
52180;SDS011;38158;53.338;6.514;2023-04-25T02:14:23;12.05;;;1.52;;
52180;SDS011;38158;53.338;6.514;2023-04-25T02:16:49;9.00;;;1.30;;
52180;SDS011;38158;53.338;6.514;2023-04-25T02:19:16;5.80;;;1.23;;
52180;SDS011;38158;53.338;6.514;2023-04-25T02:21:42;6.20;;;1.23;;
52180;SDS011;38158;53.338;6.514;2023-04-25T02:24:07;6.53;;;1.38;;
52180;SDS011;38158;53.338;6.514;2023-04-25T02:26:33;8.63;;;1.30;;
52180;SDS011;38158;53.338;6.514;2023-04-25T02:28:59;7.65;;;1.08;;
52180;SDS011;38158;53.338;6.514;2023-04-25T02:31:26;10.77;;;1.52;;
52180;SDS011;38158;53.338;6.514;2023-04-25T02:33:51;12.20;;;1.17;;
52180;SDS011;38158;53.338;6.514;2023-04-25T02:36:17;7.82;;;1.38;;
52180;SDS011;38158;53.338;6.514;2023-04-25T02:38:43;6.32;;;1.05;;
52180;SDS011;38158;53.338;6.514;2023-04-25T02:41:08;6.45;;;1.10;;
52180;SDS011;38158;53.338;6.514;2023-04-25T02:43:34;10.88;;;1.60;;
52180;SDS011;38158;53.338;6.514;2023-04-25T02:46:00;12.73;;;1.73;;
52180;SDS011;38158;53.338;6.514;2023-04-25T02:48:26;9.15;;;1.80;;
52180;SDS011;38158;53.338;6.514;2023-04-25T02:50:51;7.07;;;2.42;;
52180;SDS011;38158;53.338;6.514;2023-04-25T02:53:17;8.02;;;1.02;;
52180;SDS011;38158;53.338;6.514;2023-04-25T02:55:43;9.93;;;2.13;;
52180;SDS011;38158;53.338;6.514;2023-04-25T02:58:08;14.13;;;1.58;;
52180;SDS011;38158;53.338;6.514;2023-04-25T03:00:35;11.13;;;1.70;;
52180;SDS011;38158;53.338;6.514;2023-04-25T03:03:00;11.00;;;1.27;;
52180;SDS011;38158;53.338;6.514;2023-04-25T03:05:26;8.75;;;0.85;;
52180;SDS011;38158;53.338;6.514;2023-04-25T03:07:52;8.70;;;1.20;;
52180;SDS011;38158;53.338;6.514;2023-04-25T03:10:17;11.68;;;1.50;;
52180;SDS011;38158;53.338;6.514;2023-04-25T03:12:43;9.48;;;1.63;;
52180;SDS011;38158;53.338;6.514;2023-04-25T03:15:09;8.65;;;1.58;;
52180;SDS011;38158;53.338;6.514;2023-04-25T03:17:35;11.02;;;1.70;;
52180;SDS011;38158;53.338;6.514;2023-04-25T03:20:01;8.45;;;1.35;;
52180;SDS011;38158;53.338;6.514;2023-04-25T03:22:26;6.50;;;1.27;;
52180;SDS011;38158;53.338;6.514;2023-04-25T03:24:52;11.07;;;1.58;;
52180;SDS011;38158;53.338;6.514;2023-04-25T03:27:18;3.63;;;0.80;;
52180;SDS011;38158;53.338;6.514;2023-04-25T03:29:43;5.70;;;1.60;;
52180;SDS011;38158;53.338;6.514;2023-04-25T03:32:09;5.03;;;0.98;;
52180;SDS011;38158;53.338;6.514;2023-04-25T03:34:35;6.65;;;1.27;;
52180;SDS011;38158;53.338;6.514;2023-04-25T03:37:00;5.57;;;1.08;;
52180;SDS011;38158;53.338;6.514;2023-04-25T03:39:26;13.02;;;1.70;;
52180;SDS011;38158;53.338;6.514;2023-04-25T03:41:52;6.15;;;1.48;;
52180;SDS011;38158;53.338;6.514;2023-04-25T03:44:17;7.78;;;1.23;;
52180;SDS011;38158;53.338;6.514;2023-04-25T03:46:43;9.98;;;1.52;;
52180;SDS011;38158;53.338;6.514;2023-04-25T03:49:09;5.57;;;1.15;;
52180;SDS011;38158;53.338;6.514;2023-04-25T03:51:34;7.38;;;1.50;;
52180;SDS011;38158;53.338;6.514;2023-04-25T03:54:00;8.27;;;1.30;;
52180;SDS011;38158;53.338;6.514;2023-04-25T03:56:26;6.85;;;1.10;;
52180;SDS011;38158;53.338;6.514;2023-04-25T03:58:51;11.18;;;1.10;;
52180;SDS011;38158;53.338;6.514;2023-04-25T04:01:17;6.07;;;1.50;;
52180;SDS011;38158;53.338;6.514;2023-04-25T04:03:43;8.30;;;1.10;;
52180;SDS011;38158;53.338;6.514;2023-04-25T04:06:08;5.20;;;1.10;;
52180;SDS011;38158;53.338;6.514;2023-04-25T04:08:35;4.57;;;0.77;;
52180;SDS011;38158;53.338;6.514;2023-04-25T04:11:01;9.93;;;1.40;;
52180;SDS011;38158;53.338;6.514;2023-04-25T04:13:27;7.78;;;1.15;;
52180;SDS011;38158;53.338;6.514;2023-04-25T04:15:54;8.65;;;1.75;;
52180;SDS011;38158;53.338;6.514;2023-04-25T04:18:20;7.57;;;1.03;;
52180;SDS011;38158;53.338;6.514;2023-04-25T04:20:46;10.50;;;1.60;;
52180;SDS011;38158;53.338;6.514;2023-04-25T04:23:12;11.65;;;1.90;;
52180;SDS011;38158;53.338;6.514;2023-04-25T04:25:38;7.32;;;1.20;;
52180;SDS011;38158;53.338;6.514;2023-04-25T04:28:05;5.43;;;1.33;;
52180;SDS011;38158;53.338;6.514;2023-04-25T04:30:31;3.70;;;0.85;;
52180;SDS011;38158;53.338;6.514;2023-04-25T04:32:58;5.57;;;1.38;;
52180;SDS011;38158;53.338;6.514;2023-04-25T04:35:25;5.97;;;1.00;;
52180;SDS011;38158;53.338;6.514;2023-04-25T04:37:51;8.07;;;1.27;;
52180;SDS011;38158;53.338;6.514;2023-04-25T04:40:18;6.18;;;0.90;;
52180;SDS011;38158;53.338;6.514;2023-04-25T04:42:44;5.90;;;0.95;;
52180;SDS011;38158;53.338;6.514;2023-04-25T04:45:16;8.80;;;1.45;;
52180;SDS011;38158;53.338;6.514;2023-04-25T04:47:42;5.38;;;1.10;;
52180;SDS011;38158;53.338;6.514;2023-04-25T04:50:08;6.10;;;1.00;;
52180;SDS011;38158;53.338;6.514;2023-04-25T04:52:35;6.45;;;1.52;;
52180;SDS011;38158;53.338;6.514;2023-04-25T04:55:02;3.53;;;1.00;;
52180;SDS011;38158;53.338;6.514;2023-04-25T04:57:29;4.10;;;0.60;;
52180;SDS011;38158;53.338;6.514;2023-04-25T04:59:54;6.93;;;1.80;;
52180;SDS011;38158;53.338;6.514;2023-04-25T05:02:20;2.63;;;0.63;;
52180;SDS011;38158;53.338;6.514;2023-04-25T05:04:46;3.85;;;0.50;;
52180;SDS011;38158;53.338;6.514;2023-04-25T05:07:12;4.38;;;0.60;;
52180;SDS011;38158;53.338;6.514;2023-04-25T05:09:38;3.17;;;0.50;;
52180;SDS011;38158;53.338;6.514;2023-04-25T05:12:04;3.72;;;0.50;;
52180;SDS011;38158;53.338;6.514;2023-04-25T05:14:30;4.40;;;0.80;;
52180;SDS011;38158;53.338;6.514;2023-04-25T05:16:55;8.50;;;1.05;;
52180;SDS011;38158;53.338;6.514;2023-04-25T05:19:21;4.40;;;0.85;;
52180;SDS011;38158;53.338;6.514;2023-04-25T05:21:47;4.10;;;0.60;;
52180;SDS011;38158;53.338;6.514;2023-04-25T05:24:12;6.93;;;1.83;;
52180;SDS011;38158;53.338;6.514;2023-04-25T05:26:38;4.95;;;0.75;;
52180;SDS011;38158;53.338;6.514;2023-04-25T05:29:04;4.40;;;0.80;;
52180;SDS011;38158;53.338;6.514;2023-04-25T05:31:30;8.98;;;1.33;;
52180;SDS011;38158;53.338;6.514;2023-04-25T05:33:57;5.07;;;1.00;;
52180;SDS011;38158;53.338;6.514;2023-04-25T05:36:22;9.02;;;1.60;;
52180;SDS011;38158;53.338;6.514;2023-04-25T05:38:48;8.52;;;1.25;;
52180;SDS011;38158;53.338;6.514;2023-04-25T05:41:14;6.95;;;0.70;;
52180;SDS011;38158;53.338;6.514;2023-04-25T05:43:40;10.90;;;1.75;;
52180;SDS011;38158;53.338;6.514;2023-04-25T05:46:10;7.38;;;0.93;;
52180;SDS011;38158;53.338;6.514;2023-04-25T05:48:37;5.50;;;0.60;;
52180;SDS011;38158;53.338;6.514;2023-04-25T05:51:03;5.77;;;1.10;;
52180;SDS011;38158;53.338;6.514;2023-04-25T05:53:28;3.50;;;0.73;;
52180;SDS011;38158;53.338;6.514;2023-04-25T05:55:54;2.35;;;0.60;;
52180;SDS011;38158;53.338;6.514;2023-04-25T05:58:20;1.73;;;0.57;;
52180;SDS011;38158;53.338;6.514;2023-04-25T06:00:46;2.53;;;0.57;;
52180;SDS011;38158;53.338;6.514;2023-04-25T06:03:12;2.20;;;0.40;;
52180;SDS011;38158;53.338;6.514;2023-04-25T06:05:41;2.55;;;0.50;;
52180;SDS011;38158;53.338;6.514;2023-04-25T06:08:07;5.32;;;0.75;;
52180;SDS011;38158;53.338;6.514;2023-04-25T06:10:34;3.70;;;0.60;;
52180;SDS011;38158;53.338;6.514;2023-04-25T06:12:59;2.10;;;0.40;;
52180;SDS011;38158;53.338;6.514;2023-04-25T06:15:25;5.97;;;0.80;;
52180;SDS011;38158;53.338;6.514;2023-04-25T06:17:51;5.13;;;0.70;;
52180;SDS011;38158;53.338;6.514;2023-04-25T06:20:16;5.97;;;0.80;;
52180;SDS011;38158;53.338;6.514;2023-04-25T06:22:42;5.88;;;1.00;;
52180;SDS011;38158;53.338;6.514;2023-04-25T06:25:08;4.45;;;0.77;;
52180;SDS011;38158;53.338;6.514;2023-04-25T06:27:34;2.92;;;0.65;;
52180;SDS011;38158;53.338;6.514;2023-04-25T06:29:59;7.90;;;1.20;;
52180;SDS011;38158;53.338;6.514;2023-04-25T06:32:25;10.43;;;1.20;;
52180;SDS011;38158;53.338;6.514;2023-04-25T06:34:52;5.32;;;1.30;;
52180;SDS011;38158;53.338;6.514;2023-04-25T06:37:18;4.80;;;0.88;;
52180;SDS011;38158;53.338;6.514;2023-04-25T06:39:44;6.07;;;0.77;;
52180;SDS011;38158;53.338;6.514;2023-04-25T06:42:09;5.47;;;0.65;;
52180;SDS011;38158;53.338;6.514;2023-04-25T06:44:35;8.02;;;1.00;;
52180;SDS011;38158;53.338;6.514;2023-04-25T06:47:01;4.70;;;0.77;;
52180;SDS011;38158;53.338;6.514;2023-04-25T06:49:27;3.33;;;0.73;;
52180;SDS011;38158;53.338;6.514;2023-04-25T06:51:53;7.32;;;1.08;;
52180;SDS011;38158;53.338;6.514;2023-04-25T06:54:18;8.60;;;0.88;;
52180;SDS011;38158;53.338;6.514;2023-04-25T06:56:44;5.15;;;1.10;;
52180;SDS011;38158;53.338;6.514;2023-04-25T06:59:10;7.93;;;1.50;;
52180;SDS011;38158;53.338;6.514;2023-04-25T07:01:35;11.70;;;1.30;;
52180;SDS011;38158;53.338;6.514;2023-04-25T07:04:01;5.20;;;0.73;;
52180;SDS011;38158;53.338;6.514;2023-04-25T07:06:27;4.75;;;1.08;;
52180;SDS011;38158;53.338;6.514;2023-04-25T07:08:53;6.28;;;0.73;;
52180;SDS011;38158;53.338;6.514;2023-04-25T07:11:19;4.53;;;1.02;;
52180;SDS011;38158;53.338;6.514;2023-04-25T07:13:45;5.45;;;0.70;;
52180;SDS011;38158;53.338;6.514;2023-04-25T07:16:10;3.20;;;0.75;;
52180;SDS011;38158;53.338;6.514;2023-04-25T07:18:36;8.77;;;0.82;;
52180;SDS011;38158;53.338;6.514;2023-04-25T07:21:02;6.82;;;0.60;;
52180;SDS011;38158;53.338;6.514;2023-04-25T07:23:27;4.85;;;0.80;;
52180;SDS011;38158;53.338;6.514;2023-04-25T07:25:53;10.15;;;0.90;;
52180;SDS011;38158;53.338;6.514;2023-04-25T07:28:19;5.07;;;1.10;;
52180;SDS011;38158;53.338;6.514;2023-04-25T07:30:45;5.25;;;0.75;;
52180;SDS011;38158;53.338;6.514;2023-04-25T07:33:11;4.53;;;0.60;;
52180;SDS011;38158;53.338;6.514;2023-04-25T07:35:36;5.28;;;0.80;;
52180;SDS011;38158;53.338;6.514;2023-04-25T07:38:02;4.28;;;0.65;;
52180;SDS011;38158;53.338;6.514;2023-04-25T07:40:28;4.30;;;0.95;;
52180;SDS011;38158;53.338;6.514;2023-04-25T07:42:55;5.03;;;0.90;;
52180;SDS011;38158;53.338;6.514;2023-04-25T07:45:20;7.13;;;0.90;;
52180;SDS011;38158;53.338;6.514;2023-04-25T07:47:46;6.65;;;0.90;;
52180;SDS011;38158;53.338;6.514;2023-04-25T07:50:12;5.28;;;1.00;;
52180;SDS011;38158;53.338;6.514;2023-04-25T07:52:37;10.70;;;0.70;;
52180;SDS011;38158;53.338;6.514;2023-04-25T07:55:03;6.68;;;1.52;;
52180;SDS011;38158;53.338;6.514;2023-04-25T07:57:29;4.40;;;1.08;;
52180;SDS011;38158;53.338;6.514;2023-04-25T07:59:55;6.25;;;0.68;;
52180;SDS011;38158;53.338;6.514;2023-04-25T08:02:20;4.03;;;0.55;;
52180;SDS011;38158;53.338;6.514;2023-04-25T08:04:46;7.93;;;1.55;;
52180;SDS011;38158;53.338;6.514;2023-04-25T08:07:14;5.32;;;0.70;;
52180;SDS011;38158;53.338;6.514;2023-04-25T08:09:40;6.72;;;0.80;;
52180;SDS011;38158;53.338;6.514;2023-04-25T08:12:06;4.68;;;0.50;;
52180;SDS011;38158;53.338;6.514;2023-04-25T08:14:31;5.03;;;0.77;;
52180;SDS011;38158;53.338;6.514;2023-04-25T08:17:01;3.20;;;0.47;;
52180;SDS011;38158;53.338;6.514;2023-04-25T08:19:28;3.75;;;0.60;;
52180;SDS011;38158;53.338;6.514;2023-04-25T08:21:55;4.60;;;0.60;;
52180;SDS011;38158;53.338;6.514;2023-04-25T08:24:21;4.90;;;0.30;;
52180;SDS011;38158;53.338;6.514;2023-04-25T08:26:47;3.33;;;0.60;;
52180;SDS011;38158;53.338;6.514;2023-04-25T08:29:13;3.67;;;0.68;;
52180;SDS011;38158;53.338;6.514;2023-04-25T08:31:39;3.03;;;0.63;;
52180;SDS011;38158;53.338;6.514;2023-04-25T08:34:05;7.82;;;1.50;;
52180;SDS011;38158;53.338;6.514;2023-04-25T08:36:31;6.22;;;0.90;;
52180;SDS011;38158;53.338;6.514;2023-04-25T08:38:57;4.82;;;0.95;;
52180;SDS011;38158;53.338;6.514;2023-04-25T08:41:23;4.20;;;0.60;;
52180;SDS011;38158;53.338;6.514;2023-04-25T08:43:50;4.20;;;0.73;;
52180;SDS011;38158;53.338;6.514;2023-04-25T08:46:18;6.93;;;1.55;;
52180;SDS011;38158;53.338;6.514;2023-04-25T08:48:45;6.53;;;0.93;;
52180;SDS011;38158;53.338;6.514;2023-04-25T08:51:15;4.37;;;0.73;;
52180;SDS011;38158;53.338;6.514;2023-04-25T08:53:48;5.15;;;0.75;;
52180;SDS011;38158;53.338;6.514;2023-04-25T08:56:16;5.85;;;0.75;;
52180;SDS011;38158;53.338;6.514;2023-04-25T08:58:50;6.03;;;0.82;;
52180;SDS011;38158;53.338;6.514;2023-04-25T09:01:16;5.82;;;0.65;;
52180;SDS011;38158;53.338;6.514;2023-04-25T09:03:43;5.13;;;0.90;;
52180;SDS011;38158;53.338;6.514;2023-04-25T09:06:10;10.93;;;1.00;;
52180;SDS011;38158;53.338;6.514;2023-04-25T09:08:37;7.80;;;0.77;;
52180;SDS011;38158;53.338;6.514;2023-04-25T09:11:05;8.82;;;0.75;;
52180;SDS011;38158;53.338;6.514;2023-04-25T09:15:58;5.05;;;0.80;;
52180;SDS011;38158;53.338;6.514;2023-04-25T09:18:28;4.28;;;1.20;;
52180;SDS011;38158;53.338;6.514;2023-04-25T09:20:56;6.57;;;0.93;;
52180;SDS011;38158;53.338;6.514;2023-04-25T09:23:43;7.63;;;0.88;;
52180;SDS011;38158;53.338;6.514;2023-04-25T09:26:15;6.38;;;0.88;;
52180;SDS011;38158;53.338;6.514;2023-04-25T09:28:44;7.90;;;1.00;;
52180;SDS011;38158;53.338;6.514;2023-04-25T09:31:11;8.68;;;0.95;;
52180;SDS011;38158;53.338;6.514;2023-04-25T09:33:37;6.22;;;0.98;;
52180;SDS011;38158;53.338;6.514;2023-04-25T09:36:09;2.58;;;0.60;;
52180;SDS011;38158;53.338;6.514;2023-04-25T09:38:42;3.47;;;0.60;;
52180;SDS011;38158;53.338;6.514;2023-04-25T09:41:09;5.63;;;0.90;;
52180;SDS011;38158;53.338;6.514;2023-04-25T09:43:36;7.20;;;0.73;;
52180;SDS011;38158;53.338;6.514;2023-04-25T09:46:02;2.70;;;0.47;;
52180;SDS011;38158;53.338;6.514;2023-04-25T09:48:32;6.82;;;1.35;;
52180;SDS011;38158;53.338;6.514;2023-04-25T09:51:11;2.67;;;0.60;;
52180;SDS011;38158;53.338;6.514;2023-04-25T09:53:42;2.67;;;0.47;;
52180;SDS011;38158;53.338;6.514;2023-04-25T09:56:11;10.25;;;0.95;;
52180;SDS011;38158;53.338;6.514;2023-04-25T09:58:38;4.93;;;0.85;;
52180;SDS011;38158;53.338;6.514;2023-04-25T10:01:06;4.25;;;0.35;;
52180;SDS011;38158;53.338;6.514;2023-04-25T10:03:34;4.03;;;0.70;;
52180;SDS011;38158;53.338;6.514;2023-04-25T10:06:01;6.32;;;0.60;;
52180;SDS011;38158;53.338;6.514;2023-04-25T10:08:32;2.70;;;0.55;;
52180;SDS011;38158;53.338;6.514;2023-04-25T10:11:01;6.57;;;0.68;;
52180;SDS011;38158;53.338;6.514;2023-04-25T10:13:29;5.13;;;0.77;;
52180;SDS011;38158;53.338;6.514;2023-04-25T10:15:59;7.43;;;1.30;;
52180;SDS011;38158;53.338;6.514;2023-04-25T10:18:29;4.10;;;0.50;;
52180;SDS011;38158;53.338;6.514;2023-04-25T10:20:56;6.33;;;0.97;;
52180;SDS011;38158;53.338;6.514;2023-04-25T10:23:26;3.58;;;0.90;;
52180;SDS011;38158;53.338;6.514;2023-04-25T10:25:54;7.55;;;1.00;;
52180;SDS011;38158;53.338;6.514;2023-04-25T10:28:20;5.28;;;1.00;;
52180;SDS011;38158;53.338;6.514;2023-04-25T10:31:07;6.65;;;1.38;;
52180;SDS011;38158;53.338;6.514;2023-04-25T10:33:33;6.10;;;1.00;;
52180;SDS011;38158;53.338;6.514;2023-04-25T10:38:35;2.95;;;0.50;;
52180;SDS011;38158;53.338;6.514;2023-04-25T10:41:03;5.57;;;0.70;;
52180;SDS011;38158;53.338;6.514;2023-04-25T10:43:34;7.53;;;0.75;;
52180;SDS011;38158;53.338;6.514;2023-04-25T10:48:50;3.95;;;0.43;;
52180;SDS011;38158;53.338;6.514;2023-04-25T10:56:32;4.43;;;0.75;;
52180;SDS011;38158;53.338;6.514;2023-04-25T11:01:56;2.90;;;0.77;;
52180;SDS011;38158;53.338;6.514;2023-04-25T11:09:27;6.05;;;0.82;;
52180;SDS011;38158;53.338;6.514;2023-04-25T11:11:57;6.95;;;1.02;;
52180;SDS011;38158;53.338;6.514;2023-04-25T11:14:25;7.47;;;0.70;;
52180;SDS011;38158;53.338;6.514;2023-04-25T11:16:58;6.30;;;0.82;;
52180;SDS011;38158;53.338;6.514;2023-04-25T11:19:25;6.43;;;1.05;;
52180;SDS011;38158;53.338;6.514;2023-04-25T11:21:55;6.95;;;0.70;;
52180;SDS011;38158;53.338;6.514;2023-04-25T11:26:54;4.55;;;1.33;;
52180;SDS011;38158;53.338;6.514;2023-04-25T11:29:23;13.60;;;1.25;;
52180;SDS011;38158;53.338;6.514;2023-04-25T11:31:53;8.05;;;1.10;;
52180;SDS011;38158;53.338;6.514;2023-04-25T11:34:21;4.75;;;0.70;;
52180;SDS011;38158;53.338;6.514;2023-04-25T11:36:47;4.82;;;0.95;;
52180;SDS011;38158;53.338;6.514;2023-04-25T11:39:12;5.72;;;0.80;;
52180;SDS011;38158;53.338;6.514;2023-04-25T11:41:40;2.95;;;0.55;;
52180;SDS011;38158;53.338;6.514;2023-04-25T11:44:07;4.20;;;0.60;;
52180;SDS011;38158;53.338;6.514;2023-04-25T11:46:36;9.70;;;0.93;;
52180;SDS011;38158;53.338;6.514;2023-04-25T11:49:01;6.05;;;0.80;;
52180;SDS011;38158;53.338;6.514;2023-04-25T11:51:27;5.50;;;1.08;;
52180;SDS011;38158;53.338;6.514;2023-04-25T11:53:53;5.15;;;0.63;;
52180;SDS011;38158;53.338;6.514;2023-04-25T11:56:19;8.15;;;1.10;;
52180;SDS011;38158;53.338;6.514;2023-04-25T11:58:59;8.65;;;1.20;;
52180;SDS011;38158;53.338;6.514;2023-04-25T12:01:29;5.68;;;0.80;;
52180;SDS011;38158;53.338;6.514;2023-04-25T12:04:21;5.25;;;0.50;;
52180;SDS011;38158;53.338;6.514;2023-04-25T12:06:51;4.85;;;1.05;;
52180;SDS011;38158;53.338;6.514;2023-04-25T12:09:29;7.70;;;0.68;;
52180;SDS011;38158;53.338;6.514;2023-04-25T12:14:31;5.80;;;0.60;;
52180;SDS011;38158;53.338;6.514;2023-04-25T12:16:59;3.80;;;0.73;;
52180;SDS011;38158;53.338;6.514;2023-04-25T12:19:26;5.47;;;0.63;;
52180;SDS011;38158;53.338;6.514;2023-04-25T12:21:59;7.65;;;1.13;;
52180;SDS011;38158;53.338;6.514;2023-04-25T12:24:26;4.68;;;0.88;;
52180;SDS011;38158;53.338;6.514;2023-04-25T12:26:59;4.80;;;0.77;;
52180;SDS011;38158;53.338;6.514;2023-04-25T12:29:25;4.70;;;0.70;;
52180;SDS011;38158;53.338;6.514;2023-04-25T12:31:53;7.68;;;0.90;;
52180;SDS011;38158;53.338;6.514;2023-04-25T12:34:20;4.72;;;0.95;;
52180;SDS011;38158;53.338;6.514;2023-04-25T12:36:47;5.07;;;0.77;;
52180;SDS011;38158;53.338;6.514;2023-04-25T12:39:16;6.93;;;0.80;;
52180;SDS011;38158;53.338;6.514;2023-04-25T12:41:44;3.85;;;0.52;;
52180;SDS011;38158;53.338;6.514;2023-04-25T12:44:10;8.25;;;0.57;;
52180;SDS011;38158;53.338;6.514;2023-04-25T12:46:36;6.28;;;0.73;;
52180;SDS011;38158;53.338;6.514;2023-04-25T12:49:03;6.73;;;0.90;;
52180;SDS011;38158;53.338;6.514;2023-04-25T12:51:29;3.85;;;0.93;;
52180;SDS011;38158;53.338;6.514;2023-04-25T12:53:57;6.45;;;0.93;;
52180;SDS011;38158;53.338;6.514;2023-04-25T12:56:24;4.32;;;0.65;;
52180;SDS011;38158;53.338;6.514;2023-04-25T12:58:51;4.35;;;1.00;;
52180;SDS011;38158;53.338;6.514;2023-04-25T13:01:17;2.85;;;0.60;;
52180;SDS011;38158;53.338;6.514;2023-04-25T13:03:42;6.10;;;1.25;;
52180;SDS011;38158;53.338;6.514;2023-04-25T13:06:09;4.57;;;0.60;;
52180;SDS011;38158;53.338;6.514;2023-04-25T13:08:34;4.00;;;0.70;;
52180;SDS011;38158;53.338;6.514;2023-04-25T13:11:01;4.97;;;0.95;;
52180;SDS011;38158;53.338;6.514;2023-04-25T13:13:28;7.68;;;1.52;;
52180;SDS011;38158;53.338;6.514;2023-04-25T13:15:54;5.10;;;1.30;;
52180;SDS011;38158;53.338;6.514;2023-04-25T13:18:20;7.45;;;0.82;;
52180;SDS011;38158;53.338;6.514;2023-04-25T13:20:46;8.73;;;0.95;;
52180;SDS011;38158;53.338;6.514;2023-04-25T13:23:12;7.47;;;0.98;;
52180;SDS011;38158;53.338;6.514;2023-04-25T13:25:37;4.03;;;0.65;;
52180;SDS011;38158;53.338;6.514;2023-04-25T13:28:03;5.72;;;0.50;;
52180;SDS011;38158;53.338;6.514;2023-04-25T13:30:29;4.75;;;0.60;;
52180;SDS011;38158;53.338;6.514;2023-04-25T13:32:55;4.78;;;0.95;;
52180;SDS011;38158;53.338;6.514;2023-04-25T13:35:22;4.93;;;0.93;;
52180;SDS011;38158;53.338;6.514;2023-04-25T13:37:48;3.10;;;0.60;;
52180;SDS011;38158;53.338;6.514;2023-04-25T13:40:14;7.40;;;0.77;;
52180;SDS011;38158;53.338;6.514;2023-04-25T13:42:41;3.95;;;0.50;;
52180;SDS011;38158;53.338;6.514;2023-04-25T13:45:09;3.85;;;0.60;;
52180;SDS011;38158;53.338;6.514;2023-04-25T13:47:35;6.10;;;0.82;;
52180;SDS011;38158;53.338;6.514;2023-04-25T13:50:00;4.25;;;0.60;;
52180;SDS011;38158;53.338;6.514;2023-04-25T13:52:28;7.05;;;0.88;;
52180;SDS011;38158;53.338;6.514;2023-04-25T13:54:54;3.97;;;0.75;;
52180;SDS011;38158;53.338;6.514;2023-04-25T13:57:20;7.28;;;1.30;;
52180;SDS011;38158;53.338;6.514;2023-04-25T13:59:45;4.88;;;0.63;;
52180;SDS011;38158;53.338;6.514;2023-04-25T14:02:11;5.70;;;0.80;;
52180;SDS011;38158;53.338;6.514;2023-04-25T14:04:37;5.35;;;0.68;;
52180;SDS011;38158;53.338;6.514;2023-04-25T14:07:03;2.95;;;0.60;;
52180;SDS011;38158;53.338;6.514;2023-04-25T14:09:29;4.35;;;0.70;;
52180;SDS011;38158;53.338;6.514;2023-04-25T14:11:55;4.57;;;0.60;;
52180;SDS011;38158;53.338;6.514;2023-04-25T14:14:21;4.38;;;0.77;;
52180;SDS011;38158;53.338;6.514;2023-04-25T14:16:48;3.85;;;0.70;;
52180;SDS011;38158;53.338;6.514;2023-04-25T14:19:15;6.65;;;1.13;;
52180;SDS011;38158;53.338;6.514;2023-04-25T14:21:42;7.07;;;0.83;;
52180;SDS011;38158;53.338;6.514;2023-04-25T14:24:08;4.40;;;0.65;;
52180;SDS011;38158;53.338;6.514;2023-04-25T14:26:34;9.13;;;1.07;;
52180;SDS011;38158;53.338;6.514;2023-04-25T14:29:03;8.18;;;0.80;;
52180;SDS011;38158;53.338;6.514;2023-04-25T14:31:31;4.47;;;1.10;;
52180;SDS011;38158;53.338;6.514;2023-04-25T14:33:56;7.05;;;0.73;;
52180;SDS011;38158;53.338;6.514;2023-04-25T14:36:22;2.08;;;0.40;;
52180;SDS011;38158;53.338;6.514;2023-04-25T14:38:48;4.07;;;0.70;;
52180;SDS011;38158;53.338;6.514;2023-04-25T14:41:13;6.75;;;0.80;;
52180;SDS011;38158;53.338;6.514;2023-04-25T14:43:40;4.72;;;0.52;;
52180;SDS011;38158;53.338;6.514;2023-04-25T14:46:06;8.15;;;0.82;;
52180;SDS011;38158;53.338;6.514;2023-04-25T14:48:32;6.38;;;1.35;;
52180;SDS011;38158;53.338;6.514;2023-04-25T14:50:59;8.52;;;1.25;;
52180;SDS011;38158;53.338;6.514;2023-04-25T14:53:25;5.65;;;1.17;;
52180;SDS011;38158;53.338;6.514;2023-04-25T14:55:52;7.70;;;0.98;;
52180;SDS011;38158;53.338;6.514;2023-04-25T14:58:17;8.95;;;2.97;;
52180;SDS011;38158;53.338;6.514;2023-04-25T15:00:43;8.40;;;1.05;;
52180;SDS011;38158;53.338;6.514;2023-04-25T15:03:09;8.48;;;1.30;;
52180;SDS011;38158;53.338;6.514;2023-04-25T15:05:37;4.05;;;0.70;;
52180;SDS011;38158;53.338;6.514;2023-04-25T15:08:04;3.75;;;0.68;;
52180;SDS011;38158;53.338;6.514;2023-04-25T15:10:29;4.13;;;0.52;;
52180;SDS011;38158;53.338;6.514;2023-04-25T15:12:55;4.85;;;0.98;;